sensor_id;sensor_type;location;lat;lon;timestamp;pressure;altitude;pressure_sealevel;temperature;humidity
62011;BME280;47967;51.756;10.174;2022-07-18T00:00:11;100733.28;;;10.47;75.99
62011;BME280;47967;51.756;10.174;2022-07-18T00:04:14;100742.06;;;10.49;75.82
62011;BME280;47967;51.756;10.174;2022-07-18T00:08:18;100748.16;;;10.43;76.28
62011;BME280;47967;51.756;10.174;2022-07-18T00:12:20;100754.13;;;10.22;76.51
62011;BME280;47967;51.756;10.174;2022-07-18T00:16:23;100759.16;;;10.25;76.58
62011;BME280;47967;51.756;10.174;2022-07-18T00:20:26;100767.75;;;10.37;76.48
62011;BME280;47967;51.756;10.174;2022-07-18T00:24:30;100768.03;;;10.34;76.25
62011;BME280;47967;51.756;10.174;2022-07-18T00:28:33;100764.03;;;10.30;76.42
62011;BME280;47967;51.756;10.174;2022-07-18T00:32:37;100764.25;;;10.12;76.71
62011;BME280;47967;51.756;10.174;2022-07-18T00:36:40;100764.78;;;9.99;76.80
62011;BME280;47967;51.756;10.174;2022-07-18T00:40:44;100751.50;;;9.81;77.69
62011;BME280;47967;51.756;10.174;2022-07-18T00:44:46;100746.47;;;9.61;78.35
62011;BME280;47967;51.756;10.174;2022-07-18T00:48:49;100750.88;;;9.62;79.04
62011;BME280;47967;51.756;10.174;2022-07-18T00:52:52;100745.28;;;9.64;79.74
62011;BME280;47967;51.756;10.174;2022-07-18T00:56:56;100750.19;;;9.76;79.61
62011;BME280;47967;51.756;10.174;2022-07-18T01:00:59;100748.50;;;9.75;78.92
62011;BME280;47967;51.756;10.174;2022-07-18T01:05:19;100738.72;;;9.74;78.79
62011;BME280;47967;51.756;10.174;2022-07-18T01:09:22;100733.66;;;9.71;79.40
62011;BME280;47967;51.756;10.174;2022-07-18T01:13:26;100729.31;;;9.62;78.92
62011;BME280;47967;51.756;10.174;2022-07-18T01:17:29;100737.75;;;9.42;79.90
62011;BME280;47967;51.756;10.174;2022-07-18T01:21:37;100733.34;;;9.33;80.68
62011;BME280;47967;51.756;10.174;2022-07-18T01:25:40;100727.44;;;9.29;80.84
62011;BME280;47967;51.756;10.174;2022-07-18T01:29:43;100726.97;;;9.34;81.02
62011;BME280;47967;51.756;10.174;2022-07-18T01:33:46;100732.34;;;9.42;80.79
62011;BME280;47967;51.756;10.174;2022-07-18T01:37:51;100728.66;;;9.35;80.14
62011;BME280;47967;51.756;10.174;2022-07-18T01:41:57;100727.28;;;9.31;80.28
62011;BME280;47967;51.756;10.174;2022-07-18T01:46:00;100720.38;;;9.20;80.16
62011;BME280;47967;51.756;10.174;2022-07-18T01:50:05;100723.91;;;9.12;80.59
62011;BME280;47967;51.756;10.174;2022-07-18T01:54:09;100721.88;;;9.06;80.41
62011;BME280;47967;51.756;10.174;2022-07-18T01:58:12;100722.72;;;8.90;82.05
62011;BME280;47967;51.756;10.174;2022-07-18T02:02:14;100720.34;;;8.87;82.97
62011;BME280;47967;51.756;10.174;2022-07-18T02:06:17;100721.50;;;8.85;82.94
62011;BME280;47967;51.756;10.174;2022-07-18T02:10:21;100723.38;;;8.84;82.70
62011;BME280;47967;51.756;10.174;2022-07-18T02:14:24;100725.88;;;8.69;83.18
62011;BME280;47967;51.756;10.174;2022-07-18T02:18:27;100723.31;;;8.59;83.73
62011;BME280;47967;51.756;10.174;2022-07-18T02:22:36;100727.00;;;8.58;84.04
62011;BME280;47967;51.756;10.174;2022-07-18T02:26:40;100707.97;;;8.52;83.93
62011;BME280;47967;51.756;10.174;2022-07-18T02:30:43;100702.75;;;8.50;84.11
62011;BME280;47967;51.756;10.174;2022-07-18T02:34:46;100714.16;;;8.44;84.29
62011;BME280;47967;51.756;10.174;2022-07-18T02:38:49;100713.06;;;8.28;84.17
62011;BME280;47967;51.756;10.174;2022-07-18T02:42:53;100719.78;;;8.24;84.91
62011;BME280;47967;51.756;10.174;2022-07-18T02:46:55;100720.19;;;8.38;85.69
62011;BME280;47967;51.756;10.174;2022-07-18T02:50:58;100714.53;;;8.49;85.34
62011;BME280;47967;51.756;10.174;2022-07-18T02:55:01;100709.31;;;8.47;84.82
62011;BME280;47967;51.756;10.174;2022-07-18T02:59:05;100713.63;;;8.40;84.66
62011;BME280;47967;51.756;10.174;2022-07-18T03:03:09;100717.56;;;8.20;84.13
62011;BME280;47967;51.756;10.174;2022-07-18T03:07:11;100717.34;;;8.05;85.32
62011;BME280;47967;51.756;10.174;2022-07-18T03:11:14;100704.03;;;7.95;86.36
62011;BME280;47967;51.756;10.174;2022-07-18T03:15:18;100699.53;;;8.04;87.13
62011;BME280;47967;51.756;10.174;2022-07-18T03:19:20;100703.09;;;8.12;86.12
62011;BME280;47967;51.756;10.174;2022-07-18T03:23:23;100709.09;;;8.06;85.67
62011;BME280;47967;51.756;10.174;2022-07-18T03:27:26;100705.53;;;7.97;86.11
62011;BME280;47967;51.756;10.174;2022-07-18T03:31:30;100703.03;;;8.04;86.18
62011;BME280;47967;51.756;10.174;2022-07-18T03:35:32;100705.31;;;8.17;85.81
62011;BME280;47967;51.756;10.174;2022-07-18T03:39:35;100703.91;;;8.13;84.93
62011;BME280;47967;51.756;10.174;2022-07-18T03:43:38;100697.84;;;8.02;86.09
62011;BME280;47967;51.756;10.174;2022-07-18T03:47:42;100689.06;;;7.92;86.84
62011;BME280;47967;51.756;10.174;2022-07-18T03:51:45;100683.22;;;8.05;86.62
62011;BME280;47967;51.756;10.174;2022-07-18T03:55:48;100692.22;;;8.22;86.08
62011;BME280;47967;51.756;10.174;2022-07-18T03:59:50;100698.97;;;8.34;85.32
62011;BME280;47967;51.756;10.174;2022-07-18T04:03:54;100694.13;;;8.38;84.93
62011;BME280;47967;51.756;10.174;2022-07-18T04:07:57;100690.63;;;8.46;85.13
62011;BME280;47967;51.756;10.174;2022-07-18T04:11:59;100686.97;;;8.55;84.95
62011;BME280;47967;51.756;10.174;2022-07-18T04:16:02;100693.22;;;8.64;85.51
62011;BME280;47967;51.756;10.174;2022-07-18T04:20:08;100685.16;;;8.72;85.87
62011;BME280;47967;51.756;10.174;2022-07-18T04:24:11;100693.41;;;8.87;85.72
62011;BME280;47967;51.756;10.174;2022-07-18T04:28:13;100692.13;;;9.00;85.74
62011;BME280;47967;51.756;10.174;2022-07-18T04:32:16;100702.03;;;9.24;84.89
62011;BME280;47967;51.756;10.174;2022-07-18T04:36:20;100697.84;;;9.46;84.19
62011;BME280;47967;51.756;10.174;2022-07-18T04:40:23;100694.44;;;9.60;83.93
62011;BME280;47967;51.756;10.174;2022-07-18T04:44:25;100700.78;;;9.84;83.76
62011;BME280;47967;51.756;10.174;2022-07-18T04:48:28;100692.50;;;10.02;83.36
62011;BME280;47967;51.756;10.174;2022-07-18T04:52:37;100691.22;;;10.21;83.01
62011;BME280;47967;51.756;10.174;2022-07-18T04:56:40;100680.91;;;10.33;82.42
62011;BME280;47967;51.756;10.174;2022-07-18T05:00:42;100684.44;;;10.34;81.94
62011;BME280;47967;51.756;10.174;2022-07-18T05:04:45;100687.81;;;10.44;80.97
62011;BME280;47967;51.756;10.174;2022-07-18T05:08:49;100682.03;;;10.47;81.07
62011;BME280;47967;51.756;10.174;2022-07-18T05:12:53;100674.56;;;10.57;80.13
62011;BME280;47967;51.756;10.174;2022-07-18T05:16:55;100660.81;;;10.76;79.21
62011;BME280;47967;51.756;10.174;2022-07-18T05:20:58;100662.34;;;10.93;78.09
62011;BME280;47967;51.756;10.174;2022-07-18T05:25:03;100665.03;;;11.16;77.16
62011;BME280;47967;51.756;10.174;2022-07-18T05:29:06;100674.50;;;11.35;75.74
62011;BME280;47967;51.756;10.174;2022-07-18T05:33:09;100678.25;;;11.49;76.52
62011;BME280;47967;51.756;10.174;2022-07-18T05:37:12;100672.16;;;11.71;74.65
62011;BME280;47967;51.756;10.174;2022-07-18T05:41:16;100671.00;;;11.95;74.05
62011;BME280;47967;51.756;10.174;2022-07-18T05:45:20;100668.03;;;12.35;72.28
62011;BME280;47967;51.756;10.174;2022-07-18T05:49:23;100672.63;;;12.71;71.13
62011;BME280;47967;51.756;10.174;2022-07-18T05:53:25;100676.69;;;13.03;69.52
62011;BME280;47967;51.756;10.174;2022-07-18T05:57:30;100682.13;;;13.32;68.41
62011;BME280;47967;51.756;10.174;2022-07-18T06:01:32;100665.88;;;13.53;68.04
62011;BME280;47967;51.756;10.174;2022-07-18T06:05:35;100663.63;;;13.92;67.31
62011;BME280;47967;51.756;10.174;2022-07-18T06:09:38;100671.31;;;14.30;65.14
62011;BME280;47967;51.756;10.174;2022-07-18T06:13:42;100668.38;;;14.73;63.81
62011;BME280;47967;51.756;10.174;2022-07-18T06:17:45;100657.53;;;15.07;62.62
62011;BME280;47967;51.756;10.174;2022-07-18T06:21:48;100650.22;;;15.41;62.15
62011;BME280;47967;51.756;10.174;2022-07-18T06:25:51;100658.56;;;15.60;61.78
62011;BME280;47967;51.756;10.174;2022-07-18T06:29:55;100668.81;;;15.64;61.16
62011;BME280;47967;51.756;10.174;2022-07-18T06:33:58;100655.00;;;15.66;61.63
62011;BME280;47967;51.756;10.174;2022-07-18T06:38:03;100660.66;;;15.84;60.70
62011;BME280;47967;51.756;10.174;2022-07-18T06:42:06;100653.44;;;16.24;60.19
62011;BME280;47967;51.756;10.174;2022-07-18T06:46:10;100642.56;;;16.62;59.17
62011;BME280;47967;51.756;10.174;2022-07-18T06:50:14;100642.34;;;16.89;58.51
62011;BME280;47967;51.756;10.174;2022-07-18T06:54:17;100636.72;;;17.16;57.93
62011;BME280;47967;51.756;10.174;2022-07-18T06:58:21;100640.50;;;17.40;57.24
62011;BME280;47967;51.756;10.174;2022-07-18T07:02:25;100628.00;;;17.76;56.43
62011;BME280;47967;51.756;10.174;2022-07-18T07:06:28;100611.41;;;18.15;55.72
62011;BME280;47967;51.756;10.174;2022-07-18T07:10:31;100622.56;;;18.44;55.09
62011;BME280;47967;51.756;10.174;2022-07-18T07:14:33;100620.75;;;18.68;54.94
62011;BME280;47967;51.756;10.174;2022-07-18T07:18:37;100629.31;;;19.02;53.75
62011;BME280;47967;51.756;10.174;2022-07-18T07:22:42;100617.69;;;19.31;53.61
62011;BME280;47967;51.756;10.174;2022-07-18T07:26:45;100617.69;;;19.66;52.61
62011;BME280;47967;51.756;10.174;2022-07-18T07:30:54;100622.41;;;19.83;52.01
62011;BME280;47967;51.756;10.174;2022-07-18T07:34:57;100632.78;;;19.93;51.83
62011;BME280;47967;51.756;10.174;2022-07-18T07:39:00;100621.66;;;20.11;51.58
62011;BME280;47967;51.756;10.174;2022-07-18T07:43:08;100618.78;;;20.30;51.20
62011;BME280;47967;51.756;10.174;2022-07-18T07:47:11;100620.66;;;20.58;50.70
62011;BME280;47967;51.756;10.174;2022-07-18T07:51:15;100616.34;;;20.91;49.03
62011;BME280;47967;51.756;10.174;2022-07-18T07:55:25;100608.13;;;21.25;48.53
62011;BME280;47967;51.756;10.174;2022-07-18T07:59:29;100604.94;;;21.51;46.83
62011;BME280;47967;51.756;10.174;2022-07-18T08:03:33;100600.84;;;21.70;45.29
62011;BME280;47967;51.756;10.174;2022-07-18T08:07:37;100584.22;;;21.82;45.33
62011;BME280;47967;51.756;10.174;2022-07-18T08:11:39;100585.41;;;22.14;44.09
62011;BME280;47967;51.756;10.174;2022-07-18T08:15:42;100577.66;;;22.33;43.72
62011;BME280;47967;51.756;10.174;2022-07-18T08:19:45;100582.31;;;22.54;42.71
62011;BME280;47967;51.756;10.174;2022-07-18T08:23:49;100586.34;;;22.74;42.16
62011;BME280;47967;51.756;10.174;2022-07-18T08:27:51;100577.28;;;22.79;40.87
62011;BME280;47967;51.756;10.174;2022-07-18T08:31:54;100584.94;;;23.04;40.50
62011;BME280;47967;51.756;10.174;2022-07-18T08:35:57;100586.44;;;23.17;40.04
62011;BME280;47967;51.756;10.174;2022-07-18T08:40:01;100589.66;;;23.46;38.85
62011;BME280;47967;51.756;10.174;2022-07-18T08:44:05;100591.16;;;23.70;37.59
62011;BME280;47967;51.756;10.174;2022-07-18T08:48:17;100585.16;;;23.78;37.64
62011;BME280;47967;51.756;10.174;2022-07-18T08:52:29;100579.72;;;23.98;36.91
62011;BME280;47967;51.756;10.174;2022-07-18T08:56:53;100580.06;;;24.12;37.13
62011;BME280;47967;51.756;10.174;2022-07-18T09:00:55;100585.56;;;24.07;37.11
62011;BME280;47967;51.756;10.174;2022-07-18T09:05:00;100589.72;;;24.10;36.63
62011;BME280;47967;51.756;10.174;2022-07-18T09:09:23;100576.22;;;24.19;37.10
62011;BME280;47967;51.756;10.174;2022-07-18T09:13:37;100575.16;;;24.30;36.41
62011;BME280;47967;51.756;10.174;2022-07-18T09:17:40;100574.63;;;24.38;35.74
62011;BME280;47967;51.756;10.174;2022-07-18T09:21:42;100574.91;;;24.47;35.67
62011;BME280;47967;51.756;10.174;2022-07-18T09:25:45;100578.84;;;24.77;35.11
62011;BME280;47967;51.756;10.174;2022-07-18T09:30:06;100580.50;;;24.99;34.48
62011;BME280;47967;51.756;10.174;2022-07-18T09:34:13;100574.69;;;25.00;34.93
62011;BME280;47967;51.756;10.174;2022-07-18T09:38:17;100561.94;;;25.30;34.35
62011;BME280;47967;51.756;10.174;2022-07-18T09:42:19;100560.00;;;25.36;34.07
62011;BME280;47967;51.756;10.174;2022-07-18T09:46:24;100562.50;;;25.37;33.55
62011;BME280;47967;51.756;10.174;2022-07-18T09:50:30;100558.03;;;25.62;33.23
62011;BME280;47967;51.756;10.174;2022-07-18T09:54:38;100553.53;;;25.82;32.79
62011;BME280;47967;51.756;10.174;2022-07-18T09:58:51;100555.94;;;25.94;32.98
62011;BME280;47967;51.756;10.174;2022-07-18T10:02:56;100545.13;;;26.02;32.59
62011;BME280;47967;51.756;10.174;2022-07-18T10:07:00;100542.59;;;26.06;32.01
62011;BME280;47967;51.756;10.174;2022-07-18T10:11:05;100549.25;;;26.10;31.21
62011;BME280;47967;51.756;10.174;2022-07-18T10:15:09;100550.91;;;26.11;30.64
62011;BME280;47967;51.756;10.174;2022-07-18T10:19:12;100545.22;;;26.37;30.47
62011;BME280;47967;51.756;10.174;2022-07-18T10:23:17;100556.50;;;26.46;30.83
62011;BME280;47967;51.756;10.174;2022-07-18T10:27:20;100556.06;;;26.68;30.81
62011;BME280;47967;51.756;10.174;2022-07-18T10:31:26;100546.13;;;26.96;30.37
62011;BME280;47967;51.756;10.174;2022-07-18T10:36:02;100544.63;;;27.09;29.96
62011;BME280;47967;51.756;10.174;2022-07-18T10:40:24;100532.75;;;27.09;29.00
62011;BME280;47967;51.756;10.174;2022-07-18T10:44:34;100536.94;;;27.30;29.28
62011;BME280;47967;51.756;10.174;2022-07-18T10:48:54;100529.72;;;27.59;28.97
62011;BME280;47967;51.756;10.174;2022-07-18T10:53:02;100524.75;;;27.80;28.06
62011;BME280;47967;51.756;10.174;2022-07-18T10:57:11;100514.16;;;28.06;28.72
62011;BME280;47967;51.756;10.174;2022-07-18T11:01:16;100506.66;;;28.26;28.90
62011;BME280;47967;51.756;10.174;2022-07-18T11:05:32;100507.00;;;28.19;28.95
62011;BME280;47967;51.756;10.174;2022-07-18T11:09:41;100509.34;;;28.31;28.71
62011;BME280;47967;51.756;10.174;2022-07-18T11:13:45;100511.69;;;28.57;28.73
62011;BME280;47967;51.756;10.174;2022-07-18T11:18:00;100510.47;;;28.82;28.96
62011;BME280;47967;51.756;10.174;2022-07-18T11:22:04;100503.59;;;28.94;29.34
62011;BME280;47967;51.756;10.174;2022-07-18T11:26:13;100496.91;;;29.08;29.22
62011;BME280;47967;51.756;10.174;2022-07-18T11:30:16;100492.41;;;29.27;29.28
62011;BME280;47967;51.756;10.174;2022-07-18T11:34:20;100473.88;;;29.64;29.32
62011;BME280;47967;51.756;10.174;2022-07-18T11:38:38;100489.41;;;29.79;28.65
62011;BME280;47967;51.756;10.174;2022-07-18T11:42:43;100479.66;;;30.04;29.09
62011;BME280;47967;51.756;10.174;2022-07-18T11:46:46;100472.84;;;30.10;28.90
62011;BME280;47967;51.756;10.174;2022-07-18T11:50:48;100464.56;;;30.19;28.67
62011;BME280;47967;51.756;10.174;2022-07-18T11:54:51;100452.59;;;30.41;28.79
62011;BME280;47967;51.756;10.174;2022-07-18T11:58:55;100466.34;;;30.60;28.29
62011;BME280;47967;51.756;10.174;2022-07-18T12:02:59;100452.28;;;30.43;28.07
62011;BME280;47967;51.756;10.174;2022-07-18T12:07:19;100447.56;;;30.43;28.12
62011;BME280;47967;51.756;10.174;2022-07-18T12:11:26;100447.47;;;30.57;28.06
62011;BME280;47967;51.756;10.174;2022-07-18T12:15:39;100461.28;;;30.62;27.50
62011;BME280;47967;51.756;10.174;2022-07-18T12:19:42;100445.47;;;30.80;27.63
62011;BME280;47967;51.756;10.174;2022-07-18T12:23:45;100444.19;;;31.18;27.69
62011;BME280;47967;51.756;10.174;2022-07-18T12:27:48;100441.56;;;31.22;27.39
62011;BME280;47967;51.756;10.174;2022-07-18T12:31:52;100440.81;;;31.48;26.17
62011;BME280;47967;51.756;10.174;2022-07-18T12:35:55;100426.59;;;31.75;26.04
62011;BME280;47967;51.756;10.174;2022-07-18T12:40:00;100423.47;;;31.68;25.99
62011;BME280;47967;51.756;10.174;2022-07-18T12:44:23;100413.16;;;31.86;26.28
62011;BME280;47967;51.756;10.174;2022-07-18T12:48:28;100406.84;;;32.33;25.71
62011;BME280;47967;51.756;10.174;2022-07-18T12:52:31;100404.09;;;32.16;25.51
62011;BME280;47967;51.756;10.174;2022-07-18T12:56:34;100406.38;;;32.22;25.03
62011;BME280;47967;51.756;10.174;2022-07-18T13:00:37;100407.22;;;32.14;25.31
62011;BME280;47967;51.756;10.174;2022-07-18T13:04:41;100403.31;;;31.80;24.96
62011;BME280;47967;51.756;10.174;2022-07-18T13:08:44;100401.78;;;32.00;25.46
62011;BME280;47967;51.756;10.174;2022-07-18T13:12:46;100406.41;;;31.70;25.40
62011;BME280;47967;51.756;10.174;2022-07-18T13:16:49;100403.75;;;31.56;25.41
62011;BME280;47967;51.756;10.174;2022-07-18T13:20:59;100390.50;;;31.79;25.94
62011;BME280;47967;51.756;10.174;2022-07-18T13:25:01;100389.19;;;31.68;25.61
62011;BME280;47967;51.756;10.174;2022-07-18T13:29:04;100379.97;;;31.76;25.99
62011;BME280;47967;51.756;10.174;2022-07-18T13:33:07;100369.78;;;31.98;25.78
62011;BME280;47967;51.756;10.174;2022-07-18T13:37:11;100369.59;;;32.03;25.85
62011;BME280;47967;51.756;10.174;2022-07-18T13:41:14;100361.75;;;31.78;25.53
62011;BME280;47967;51.756;10.174;2022-07-18T13:45:16;100359.91;;;32.09;25.39
62011;BME280;47967;51.756;10.174;2022-07-18T13:49:19;100364.50;;;32.14;24.88
62011;BME280;47967;51.756;10.174;2022-07-18T13:53:23;100354.38;;;32.56;24.61
62011;BME280;47967;51.756;10.174;2022-07-18T13:57:26;100347.72;;;32.79;24.51
62011;BME280;47967;51.756;10.174;2022-07-18T14:01:29;100350.63;;;33.42;24.53
62011;BME280;47967;51.756;10.174;2022-07-18T14:05:33;100348.59;;;33.51;23.72
62011;BME280;47967;51.756;10.174;2022-07-18T14:09:37;100347.44;;;34.07;24.11
62011;BME280;47967;51.756;10.174;2022-07-18T14:13:40;100342.25;;;33.63;24.02
62011;BME280;47967;51.756;10.174;2022-07-18T14:17:43;100340.34;;;34.10;23.59
62011;BME280;47967;51.756;10.174;2022-07-18T14:21:46;100335.75;;;34.39;23.35
62011;BME280;47967;51.756;10.174;2022-07-18T14:25:50;100330.03;;;34.47;23.74
62011;BME280;47967;51.756;10.174;2022-07-18T14:29:52;100325.03;;;34.78;23.29
62011;BME280;47967;51.756;10.174;2022-07-18T14:33:55;100325.03;;;34.66;23.25
62011;BME280;47967;51.756;10.174;2022-07-18T14:37:57;100320.22;;;35.03;22.99
62011;BME280;47967;51.756;10.174;2022-07-18T14:42:02;100309.09;;;35.19;22.76
62011;BME280;47967;51.756;10.174;2022-07-18T14:46:05;100316.84;;;34.73;22.74
62011;BME280;47967;51.756;10.174;2022-07-18T14:50:09;100315.19;;;34.47;23.18
62011;BME280;47967;51.756;10.174;2022-07-18T14:54:12;100307.97;;;35.36;22.31
62011;BME280;47967;51.756;10.174;2022-07-18T14:58:16;100300.97;;;36.31;21.29
62011;BME280;47967;51.756;10.174;2022-07-18T15:02:20;100305.88;;;36.34;21.63
62011;BME280;47967;51.756;10.174;2022-07-18T15:06:23;100302.31;;;37.01;20.66
62011;BME280;47967;51.756;10.174;2022-07-18T15:10:25;100296.16;;;36.80;20.93
62011;BME280;47967;51.756;10.174;2022-07-18T15:14:29;100292.13;;;36.61;21.33
62011;BME280;47967;51.756;10.174;2022-07-18T15:18:32;100290.63;;;37.19;20.35
62011;BME280;47967;51.756;10.174;2022-07-18T15:22:35;100292.19;;;37.56;20.47
62011;BME280;47967;51.756;10.174;2022-07-18T15:26:38;100293.03;;;37.56;20.23
62011;BME280;47967;51.756;10.174;2022-07-18T15:30:41;100288.28;;;38.26;20.42
62011;BME280;47967;51.756;10.174;2022-07-18T15:34:47;100286.59;;;38.22;19.45
62011;BME280;47967;51.756;10.174;2022-07-18T15:38:50;100279.00;;;37.79;19.68
62011;BME280;47967;51.756;10.174;2022-07-18T15:42:53;100279.50;;;37.26;20.24
62011;BME280;47967;51.756;10.174;2022-07-18T15:46:57;100273.34;;;36.01;20.58
62011;BME280;47967;51.756;10.174;2022-07-18T15:50:59;100267.50;;;35.50;21.05
62011;BME280;47967;51.756;10.174;2022-07-18T15:55:03;100262.72;;;35.95;21.14
62011;BME280;47967;51.756;10.174;2022-07-18T15:59:06;100252.59;;;36.54;20.52
62011;BME280;47967;51.756;10.174;2022-07-18T16:03:10;100252.31;;;37.34;20.22
62011;BME280;47967;51.756;10.174;2022-07-18T16:07:13;100238.09;;;37.86;19.56
62011;BME280;47967;51.756;10.174;2022-07-18T16:11:19;100250.16;;;38.59;18.21
62011;BME280;47967;51.756;10.174;2022-07-18T16:15:21;100244.75;;;38.47;18.72
62011;BME280;47967;51.756;10.174;2022-07-18T16:19:26;100239.28;;;38.85;18.50
62011;BME280;47967;51.756;10.174;2022-07-18T16:23:28;100234.09;;;39.59;18.08
62011;BME280;47967;51.756;10.174;2022-07-18T16:27:31;100231.03;;;39.03;18.10
62011;BME280;47967;51.756;10.174;2022-07-18T16:31:33;100224.06;;;39.23;18.24
62011;BME280;47967;51.756;10.174;2022-07-18T16:35:38;100222.25;;;38.78;18.19
62011;BME280;47967;51.756;10.174;2022-07-18T16:39:48;100219.50;;;39.87;17.58
62011;BME280;47967;51.756;10.174;2022-07-18T16:43:51;100220.06;;;39.66;17.53
62011;BME280;47967;51.756;10.174;2022-07-18T16:47:54;100213.72;;;39.73;17.44
62011;BME280;47967;51.756;10.174;2022-07-18T16:52:04;100211.47;;;39.17;18.03
62011;BME280;47967;51.756;10.174;2022-07-18T16:56:08;100206.91;;;38.48;19.23
62011;BME280;47967;51.756;10.174;2022-07-18T17:00:12;100203.41;;;38.58;18.46
62011;BME280;47967;51.756;10.174;2022-07-18T17:04:16;100195.06;;;38.66;18.80
62011;BME280;47967;51.756;10.174;2022-07-18T17:08:20;100188.94;;;39.62;18.04
62011;BME280;47967;51.756;10.174;2022-07-18T17:12:23;100179.16;;;39.94;17.88
62011;BME280;47967;51.756;10.174;2022-07-18T17:16:26;100186.00;;;39.48;17.98
62011;BME280;47967;51.756;10.174;2022-07-18T17:20:29;100179.06;;;39.79;18.07
62011;BME280;47967;51.756;10.174;2022-07-18T17:24:34;100183.56;;;39.88;17.96
62011;BME280;47967;51.756;10.174;2022-07-18T17:28:37;100173.06;;;40.40;17.28
62011;BME280;47967;51.756;10.174;2022-07-18T17:32:40;100174.88;;;40.70;17.21
62011;BME280;47967;51.756;10.174;2022-07-18T17:36:45;100173.75;;;40.23;17.65
62011;BME280;47967;51.756;10.174;2022-07-18T17:40:50;100173.53;;;40.49;17.31
62011;BME280;47967;51.756;10.174;2022-07-18T17:44:53;100174.59;;;39.78;18.07
62011;BME280;47967;51.756;10.174;2022-07-18T17:48:56;100168.16;;;39.78;17.50
62011;BME280;47967;51.756;10.174;2022-07-18T17:52:58;100171.22;;;40.10;17.85
62011;BME280;47967;51.756;10.174;2022-07-18T17:57:03;100163.69;;;39.77;17.91
62011;BME280;47967;51.756;10.174;2022-07-18T18:01:06;100167.25;;;39.29;18.37
62011;BME280;47967;51.756;10.174;2022-07-18T18:05:11;100159.19;;;39.68;18.09
62011;BME280;47967;51.756;10.174;2022-07-18T18:09:18;100161.81;;;39.47;18.32
62011;BME280;47967;51.756;10.174;2022-07-18T18:13:22;100156.41;;;38.97;18.93
62011;BME280;47967;51.756;10.174;2022-07-18T18:17:25;100163.34;;;37.92;20.43
62011;BME280;47967;51.756;10.174;2022-07-18T18:21:28;100161.69;;;36.46;23.24
62011;BME280;47967;51.756;10.174;2022-07-18T18:25:30;100154.47;;;34.92;25.21
62011;BME280;47967;51.756;10.174;2022-07-18T18:29:35;100160.31;;;34.22;26.23
62011;BME280;47967;51.756;10.174;2022-07-18T18:33:37;100153.44;;;33.15;27.18
62011;BME280;47967;51.756;10.174;2022-07-18T18:37:40;100148.84;;;32.25;28.86
62011;BME280;47967;51.756;10.174;2022-07-18T18:41:43;100150.94;;;31.42;29.53
62011;BME280;47967;51.756;10.174;2022-07-18T18:45:47;100153.44;;;30.65;30.62
62011;BME280;47967;51.756;10.174;2022-07-18T18:49:49;100163.69;;;30.38;29.72
62011;BME280;47967;51.756;10.174;2022-07-18T18:53:52;100167.78;;;29.92;31.03
62011;BME280;47967;51.756;10.174;2022-07-18T18:57:55;100168.97;;;29.91;33.31
62011;BME280;47967;51.756;10.174;2022-07-18T19:01:59;100168.38;;;29.48;33.97
62011;BME280;47967;51.756;10.174;2022-07-18T19:06:02;100169.25;;;29.12;33.46
62011;BME280;47967;51.756;10.174;2022-07-18T19:10:06;100166.91;;;28.55;34.05
62011;BME280;47967;51.756;10.174;2022-07-18T19:14:09;100172.91;;;27.92;35.93
62011;BME280;47967;51.756;10.174;2022-07-18T19:18:13;100172.94;;;27.59;36.54
62011;BME280;47967;51.756;10.174;2022-07-18T19:22:15;100168.34;;;26.83;37.95
62011;BME280;47967;51.756;10.174;2022-07-18T19:26:18;100166.75;;;26.15;39.24
62011;BME280;47967;51.756;10.174;2022-07-18T19:30:21;100171.16;;;25.86;39.52
62011;BME280;47967;51.756;10.174;2022-07-18T19:34:25;100183.13;;;25.13;40.56
62011;BME280;47967;51.756;10.174;2022-07-18T19:38:27;100181.34;;;24.87;41.62
62011;BME280;47967;51.756;10.174;2022-07-18T19:42:30;100183.16;;;24.57;42.34
62011;BME280;47967;51.756;10.174;2022-07-18T19:46:33;100187.72;;;24.22;43.07
62011;BME280;47967;51.756;10.174;2022-07-18T19:50:37;100187.00;;;23.70;44.24
62011;BME280;47967;51.756;10.174;2022-07-18T19:54:40;100181.78;;;23.27;45.17
62011;BME280;47967;51.756;10.174;2022-07-18T19:58:42;100189.94;;;22.76;46.11
62011;BME280;47967;51.756;10.174;2022-07-18T20:02:45;100190.16;;;22.53;47.09
62011;BME280;47967;51.756;10.174;2022-07-18T20:06:50;100198.06;;;22.45;47.13
62011;BME280;47967;51.756;10.174;2022-07-18T20:10:52;100192.22;;;22.36;47.46
62011;BME280;47967;51.756;10.174;2022-07-18T20:14:55;100193.78;;;22.11;48.41
62011;BME280;47967;51.756;10.174;2022-07-18T20:18:58;100190.56;;;21.77;48.77
62011;BME280;47967;51.756;10.174;2022-07-18T20:23:03;100188.84;;;21.38;49.46
62011;BME280;47967;51.756;10.174;2022-07-18T20:27:07;100197.06;;;21.05;50.28
62011;BME280;47967;51.756;10.174;2022-07-18T20:31:09;100199.59;;;20.85;51.24
62011;BME280;47967;51.756;10.174;2022-07-18T20:35:13;100192.41;;;20.78;51.34
62011;BME280;47967;51.756;10.174;2022-07-18T20:39:17;100196.75;;;20.52;51.87
62011;BME280;47967;51.756;10.174;2022-07-18T20:43:20;100198.06;;;20.27;52.73
62011;BME280;47967;51.756;10.174;2022-07-18T20:47:22;100198.19;;;19.93;53.41
62011;BME280;47967;51.756;10.174;2022-07-18T20:51:26;100202.88;;;19.64;54.64
62011;BME280;47967;51.756;10.174;2022-07-18T20:55:30;100202.16;;;19.68;55.15
62011;BME280;47967;51.756;10.174;2022-07-18T20:59:33;100204.94;;;19.74;55.21
62011;BME280;47967;51.756;10.174;2022-07-18T21:03:36;100201.16;;;19.58;55.55